Time;durP1;ratioP1;P1;durP2;ratioP2;P2;SDS_P1;SDS_P2;PMS_P1;PMS_P2;Temp;Humidity;BMP_temperature;BMP_pressure;BME280_temperature;BME280_humidity;BME280_pressure;Samples;Min_cycle;Max_cycle;Signal;HPM_P1;HPM_P2
2022/08/20 00:00:34;;;;;;;11.87;10.07;;;;;;;19.31;100.00;163505.22;4992851;28;20465;-58
2022/08/20 00:03:04;;;;;;;11.88;10.77;;;;;;;19.30;100.00;163215.53;4994122;28;20109;-57
2022/08/20 00:05:35;;;;;;;10.48;9.48;;;;;;;19.26;100.00;162091.88;4992305;28;20547;-58
2022/08/20 00:08:02;;;;;;;11.32;10.23;;;;;;;19.31;100.00;160067.56;4994276;28;20026;-57
2022/08/20 00:10:30;;;;;;;10.70;9.73;;;;;;;19.29;100.00;158909.63;4991694;28;20125;-57
2022/08/20 00:12:56;;;;;;;11.67;10.47;;;;;;;19.29;100.00;158471.94;4993922;28;20505;-58
2022/08/20 00:15:24;;;;;;;15.02;10.60;;;;;;;19.26;100.00;157369.19;4992772;28;20134;-58
2022/08/20 00:17:51;;;;;;;13.55;10.38;;;;;;;19.23;100.00;157003.63;4993623;28;20030;-57
2022/08/20 00:20:19;;;;;;;11.98;10.90;;;;;;;19.21;100.00;158072.16;4992632;28;20122;-58
2022/08/20 00:22:44;;;;;;;13.23;11.63;;;;;;;19.15;100.00;158589.25;4993793;28;20537;-57
2022/08/20 00:25:11;;;;;;;11.77;10.57;;;;;;;19.12;100.00;157691.00;4992437;28;20053;-58
2022/08/20 00:27:36;;;;;;;10.68;9.57;;;;;;;19.11;100.00;156257.25;4993586;28;20398;-58
2022/08/20 00:30:06;;;;;;;13.65;12.23;;;;;;;19.09;100.00;154821.53;4992475;28;20065;-58
2022/08/20 00:32:40;;;;;;;12.35;11.18;;;;;;;19.08;100.00;153031.44;4993250;28;20033;-58
2022/08/20 00:35:05;;;;;;;13.52;12.18;;;;;;;19.06;100.00;152312.91;4992195;28;20502;-58
2022/08/20 00:37:31;;;;;;;20.50;12.52;;;;;;;19.07;100.00;151242.16;4993502;28;20034;-58
2022/08/20 00:39:57;;;;;;;13.65;11.40;;;;;;;19.03;100.00;150520.25;4991867;28;20097;-58
2022/08/20 00:42:22;;;;;;;12.38;11.07;;;;;;;19.04;100.00;149807.19;4993493;28;20026;-58
2022/08/20 00:44:48;;;;;;;14.82;12.35;;;;;;;19.03;100.00;148376.44;4992424;28;20413;-58
2022/08/20 00:47:13;;;;;;;20.02;12.73;;;;;;;19.02;100.00;147304.31;4993292;28;20026;-58
2022/08/20 00:49:39;;;;;;;15.57;12.75;;;;;;;19.01;100.00;146230.13;4991806;28;20049;-57
2022/08/20 00:52:12;;;;;;;14.63;13.02;;;;;;;18.98;100.00;144797.22;4993339;28;20485;-58
2022/08/20 00:54:44;;;;;;;14.98;13.43;;;;;;;18.97;100.00;142654.25;4991554;28;20118;-58
2022/08/20 00:57:20;;;;;;;13.10;11.85;;;;;;;18.99;100.00;140877.94;4993201;28;20490;-58
2022/08/20 00:59:48;;;;;;;15.32;12.00;;;;;;;18.99;100.00;139452.81;4991544;28;20116;-57
2022/08/20 01:02:16;;;;;;;13.20;12.00;;;;;;;19.01;100.00;138388.81;4992596;28;20149;-58
2022/08/20 01:04:48;;;;;;;17.35;15.27;;;;;;;18.99;100.00;138028.16;4991721;28;20049;-57
2022/08/20 01:07:13;;;;;;;15.35;13.52;;;;;;;19.00;100.00;138030.41;4993231;28;20023;-58
2022/08/20 01:09:39;;;;;;;13.77;12.38;;;;;;;18.99;100.00;138384.28;4991062;28;20409;-57
2022/08/20 01:12:06;;;;;;;16.15;14.57;;;;;;;18.98;100.00;138738.16;4993072;28;20026;-57
2022/08/20 01:17:03;;;;;;;14.85;12.65;;;;;;;18.94;100.00;139441.47;4992647;28;20125;-58
2022/08/20 01:19:43;;;;;;;15.90;14.25;;;;;;;18.92;100.00;138724.59;4990619;28;20057;-58
2022/08/20 01:25:09;;;;;;;15.95;14.25;;;;;;;18.91;100.00;137653.00;4988352;28;20520;-57
2022/08/20 01:27:36;;;;;;;15.52;13.60;;;;;;;18.86;100.00;137644.00;4989858;28;20072;-58
2022/08/20 01:30:01;;;;;;;16.33;14.65;;;;;;;18.83;100.00;137280.19;4990547;28;20050;-59
2022/08/20 01:32:27;;;;;;;15.98;14.02;;;;;;;18.81;100.00;136208.06;4991281;28;20026;-58
2022/08/20 01:34:52;;;;;;;17.95;14.52;;;;;;;18.79;100.00;135137.38;4990896;28;20034;-57
2022/08/20 01:37:18;;;;;;;20.17;14.95;;;;;;;18.74;100.00;134769.59;4992122;28;20497;-58
2022/08/20 01:39:43;;;;;;;17.20;15.50;;;;;;;18.71;100.00;134409.59;4990034;28;20398;-58
2022/08/20 01:42:41;;;;;;;19.20;16.08;;;;;;;18.69;100.00;134048.50;4991798;28;20034;-58
2022/08/20 01:45:07;;;;;;;21.02;16.73;;;;;;;18.66;100.00;132619.94;4989546;28;20416;-58
2022/08/20 01:47:32;;;;;;;19.88;16.42;;;;;;;18.63;100.00;131193.06;4991845;28;20033;-58
2022/08/20 01:50:15;;;;;;;16.65;14.90;;;;;;;18.60;100.00;130119.88;4990576;28;20045;-58
2022/08/20 01:52:58;;;;;;;18.75;16.85;;;;;;;18.56;100.00;130112.47;4989694;28;20491;-57
2022/08/20 01:55:26;;;;;;;20.13;16.55;;;;;;;18.51;100.00;130812.19;4988962;28;20041;-58
2022/08/20 01:57:51;;;;;;;17.33;15.23;;;;;;;18.47;100.00;131158.91;4991972;28;20057;-58
2022/08/20 02:00:18;;;;;;;17.75;14.85;;;;;;;18.44;100.00;131507.69;4989820;28;21024;-58
2022/08/20 02:02:44;;;;;;;17.30;15.35;;;;;;;18.41;100.00;131502.34;4991286;28;20426;-59
2022/08/20 02:05:10;;;;;;;19.58;16.35;;;;;;;18.31;100.00;130060.63;4990214;28;20114;-58
2022/08/20 02:07:36;;;;;;;21.58;17.70;;;;;;;18.36;100.00;128297.31;4991270;28;20022;-58
2022/08/20 02:10:04;;;;;;;20.15;17.88;;;;;;;18.35;100.00;126875.91;4990857;28;20053;-58
2022/08/20 02:12:29;;;;;;;19.30;16.80;;;;;;;18.30;100.00;125800.44;4991721;28;20409;-58
2022/08/20 02:14:55;;;;;;;18.45;16.50;;;;;;;18.32;100.00;125096.28;4990159;28;20035;-58
2022/08/20 02:17:22;;;;;;;20.85;17.67;;;;;;;18.31;100.00;124384.09;4992029;28;20405;-58
2022/08/20 02:19:52;;;;;;;23.80;19.08;;;;;;;18.30;100.00;123319.63;4990608;28;20466;-58
2022/08/20 02:22:25;;;;;;;20.52;17.13;;;;;;;18.32;100.00;121906.06;4991426;28;20573;-58
2022/08/20 02:24:51;;;;;;;22.63;17.90;;;;;;;18.30;100.00;121193.53;4990725;28;20060;-58
2022/08/20 02:27:17;;;;;;;20.27;17.15;;;;;;;18.34;100.00;120846.16;4991756;28;20502;-58
2022/08/20 02:29:43;;;;;;;20.17;16.73;;;;;;;18.36;100.00;120851.03;4989634;28;20042;-58
2022/08/20 02:32:10;;;;;;;23.70;17.90;;;;;;;18.35;100.00;120849.09;4991532;28;20037;-58
2022/08/20 02:34:36;;;;;;;21.60;19.00;;;;;;;18.32;100.00;121551.75;4990283;28;20038;-58
2022/08/20 02:37:04;;;;;;;21.63;18.27;;;;;;;18.36;100.00;121913.97;4991330;28;20393;-57
2022/08/20 02:39:29;;;;;;;19.10;17.08;;;;;;;18.37;100.00;122270.31;4990068;28;20305;-58
2022/08/20 02:41:54;;;;;;;21.88;17.33;;;;;;;18.33;100.00;122971.19;4991582;28;20253;-58
2022/08/20 02:44:20;;;;;;;19.27;17.27;;;;;;;18.36;100.00;122976.19;4989937;28;20038;-58
2022/08/20 02:46:48;;;;;;;21.10;18.23;;;;;;;18.34;100.00;123682.13;4991738;28;20069;-58
2022/08/20 02:49:16;;;;;;;20.02;17.90;;;;;;;18.34;100.00;123681.09;4990186;28;20043;-58
2022/08/20 02:51:42;;;;;;;19.63;16.73;;;;;;;18.34;100.00;123327.66;4991228;28;20038;-58
2022/08/20 02:54:07;;;;;;;24.20;16.58;;;;;;;18.33;100.00;123325.63;4990132;28;20084;-59
2022/08/20 02:56:33;;;;;;;30.67;18.92;;;;;;;18.34;100.00;123326.63;4991241;28;20474;-58
2022/08/20 02:58:59;;;;;;;21.83;17.08;;;;;;;18.35;100.00;122975.19;4989960;28;20026;-58
2022/08/20 03:01:24;;;;;;;29.98;17.63;;;;;;;18.35;100.00;123329.66;4991236;28;20069;-58
2022/08/20 03:03:50;;;;;;;26.23;18.45;;;;;;;18.33;100.00;123325.63;4990330;28;20018;-57
2022/08/20 03:06:15;;;;;;;12.90;11.60;;;;;;;18.27;100.00;124022.53;4991437;28;20019;-58
2022/08/20 03:08:41;;;;;;;13.00;10.95;;;;;;;18.23;100.00;126852.19;4990936;28;20066;-58
2022/08/20 03:11:07;;;;;;;14.50;11.95;;;;;;;18.14;100.00;131091.69;4989868;28;20042;-58
2022/08/20 03:13:33;;;;;;;10.52;9.27;;;;;;;18.01;100.00;135681.91;4991268;28;20474;-58
2022/08/20 03:16:00;;;;;;;8.43;7.63;;;;;;;17.87;100.00;139561.78;4989741;28;20121;-57
2022/08/20 03:18:30;;;;;;;10.23;7.70;;;;;;;17.75;100.00;141669.38;4991229;28;20030;-57
2022/08/20 03:20:56;;;;;;;7.53;6.93;;;;;;;17.67;100.00;142005.38;4989782;28;20086;-58
2022/08/20 03:23:21;;;;;;;8.10;7.30;;;;;;;17.60;100.00;141634.69;4990944;28;20035;-58
2022/08/20 03:25:47;;;;;;;9.68;8.07;;;;;;;17.56;100.00;140914.25;4989760;28;20083;-57
2022/08/20 03:28:14;;;;;;;11.75;9.23;;;;;;;17.50;100.00;140189.50;4991301;28;20030;-57
2022/08/20 03:30:40;;;;;;;15.48;8.55;;;;;;;17.48;100.00;137342.44;4989083;28;20494;-57
2022/08/20 03:33:07;;;;;;;10.68;8.43;;;;;;;17.44;100.00;134140.44;4991146;28;20549;-58
2022/08/20 03:35:36;;;;;;;9.68;8.70;;;;;;;17.37;100.00;133059.59;4989508;28;20039;-58
2022/08/20 03:38:06;;;;;;;8.43;7.47;;;;;;;17.34;100.00;132343.69;4990980;28;20042;-57
2022/08/20 03:40:32;;;;;;;7.65;6.85;;;;;;;17.29;100.00;131624.75;4989561;28;20042;-57
2022/08/20 03:42:58;;;;;;;9.52;7.55;;;;;;;17.27;100.00;131266.97;4991212;28;20022;-57
2022/08/20 03:45:25;;;;;;;9.43;6.25;;;;;;;17.26;100.00;130554.69;4992054;28;20617;-57
2022/08/20 03:47:52;;;;;;;6.75;5.65;;;;;;;17.22;100.00;130546.22;4994599;28;20030;-57
2022/08/20 03:50:20;;;;;;;6.32;5.80;;;;;;;17.16;100.00;131951.38;4993136;28;20038;-57
2022/08/20 03:52:45;;;;;;;7.18;6.45;;;;;;;17.09;100.00;133711.38;4993935;28;20040;-57
2022/08/20 03:55:11;;;;;;;9.82;7.45;;;;;;;17.05;100.00;134412.00;4992986;28;20039;-57
2022/08/20 03:57:54;;;;;;;11.38;7.55;;;;;;;17.03;100.00;132988.03;4994188;28;20437;-57
2022/08/20 04:00:26;;;;;;;8.70;7.80;;;;;;;17.02;100.00;130505.78;4992227;28;20124;-57
2022/08/20 04:02:51;;;;;;;9.57;8.70;;;;;;;17.00;100.00;128021.97;4991474;28;20022;-57
2022/08/20 04:05:17;;;;;;;10.32;6.85;;;;;;;16.96;100.00;126951.44;4992704;28;20049;-57
2022/08/20 04:07:43;;;;;;;9.38;8.10;;;;;;;16.89;100.00;127290.91;4992947;28;20022;-57
2022/08/20 04:10:11;;;;;;;8.85;7.95;;;;;;;16.83;100.00;127632.47;4992406;28;20042;-57
2022/08/20 04:12:39;;;;;;;10.57;8.93;;;;;;;16.74;100.00;126908.00;4993662;28;20033;-57
2022/08/20 04:15:07;;;;;;;10.48;9.30;;;;;;;16.74;100.00;125846.50;4992078;28;20490;-56
2022/08/20 04:17:32;;;;;;;9.48;8.65;;;;;;;16.72;100.00;125134.91;4993194;28;20037;-57
2022/08/20 04:19:58;;;;;;;11.23;9.65;;;;;;;16.72;100.00;124073.91;4992241;28;20042;-57
2022/08/20 04:22:23;;;;;;;9.32;8.43;;;;;;;16.71;100.00;123011.19;4992778;28;20018;-57
2022/08/20 04:24:49;;;;;;;10.07;9.18;;;;;;;16.64;100.00;123350.69;4992190;28;20050;-57
2022/08/20 04:27:14;;;;;;;11.98;9.43;;;;;;;16.59;100.00;124048.69;4993376;28;20466;-57
2022/08/20 04:29:41;;;;;;;9.63;8.73;;;;;;;16.50;100.00;124385.00;4991426;28;20042;-57
2022/08/20 04:32:07;;;;;;;10.85;9.75;;;;;;;16.47;100.00;124377.94;4993247;28;20026;-57
2022/08/20 04:34:33;;;;;;;11.98;10.85;;;;;;;16.46;100.00;124023.44;4991739;28;20049;-57
2022/08/20 04:36:58;;;;;;;12.88;10.63;;;;;;;16.42;100.00;122248.47;4992869;28;20030;-58
2022/08/20 04:39:24;;;;;;;12.25;10.38;;;;;;;16.48;100.00;120140.97;4991583;28;20096;-57
2022/08/20 04:41:49;;;;;;;10.25;9.20;;;;;;;16.46;100.00;119077.78;4993082;28;20018;-57
2022/08/20 04:44:15;;;;;;;12.13;10.90;;;;;;;16.44;100.00;118719.94;4991581;28;20093;-57
2022/08/20 04:46:40;;;;;;;11.75;10.27;;;;;;;16.46;100.00;117665.84;4992920;28;20011;-57
2022/08/20 04:49:06;;;;;;;10.38;9.20;;;;;;;16.45;100.00;116958.13;4991877;28;20355;-57
2022/08/20 04:51:32;;;;;;;12.45;11.25;;;;;;;16.46;100.00;116607.19;4992306;28;20023;-57
2022/08/20 04:53:59;;;;;;;15.95;11.13;;;;;;;16.45;100.00;116958.13;4991741;28;20061;-57
2022/08/20 04:56:27;;;;;;;14.10;10.93;;;;;;;16.48;100.00;116257.19;4992268;28;20049;-57
2022/08/20 04:58:54;;;;;;;;;;;;;;;16.50;100.00;115203.56;4989581;28;20018;-57
2022/08/20 05:01:19;;;;;;;11.13;10.02;;;;;;;16.50;100.00;114850.84;4992889;28;19909;-57
2022/08/20 05:03:46;;;;;;;11.07;9.93;;;;;;;16.49;100.00;114848.97;4993315;28;20069;-57
2022/08/20 05:06:12;;;;;;;16.35;13.43;;;;;;;16.48;100.00;114494.47;4991548;28;20489;-57
2022/08/20 05:08:38;;;;;;;14.07;12.63;;;;;;;16.57;100.00;113803.97;4992857;28;20196;-57
2022/08/20 05:11:06;;;;;;;16.50;12.27;;;;;;;16.62;100.00;113107.91;4991655;28;20042;-57
2022/08/20 05:13:32;;;;;;;15.18;12.65;;;;;;;16.65;100.00;112409.09;4992730;28;20030;-57
2022/08/20 05:16:00;;;;;;;15.00;13.43;;;;;;;16.75;100.00;111015.25;4991652;28;20521;-57
2022/08/20 05:18:25;;;;;;;19.63;17.48;;;;;;;16.87;100.00;109273.41;4993100;28;20065;-57
2022/08/20 05:20:51;;;;;;;22.25;17.52;;;;;;;16.96;100.00;107527.38;4991105;28;20042;-57
2022/08/20 05:23:19;;;;;;;25.73;16.65;;;;;;;17.00;100.00;105772.97;4992852;28;20035;-57
2022/08/20 05:25:50;;;;;;;20.43;15.27;;;;;;;17.14;100.00;104387.22;4991008;28;20058;-57
2022/08/20 05:28:19;;;;;;;16.25;14.55;;;;;;;17.22;100.00;103343.44;4992755;28;20452;-57
2022/08/20 05:30:47;;;;;;;18.42;15.27;;;;;;;17.26;100.00;102998.00;4990972;28;20049;-57
2022/08/20 05:33:15;;;;;;;;;;;;;;;17.34;100.00;102306.25;4993208;28;20045;-57
2022/08/20 05:35:41;;;;;;;20.35;16.73;;;;;;;17.47;100.00;101270.56;4990717;28;19944;-57
2022/08/20 05:38:10;;;;;;;27.38;19.10;;;;;;;17.62;100.00;100238.78;4991512;28;20462;-58
2022/08/20 05:40:36;;;;;;;22.38;19.05;;;;;;;17.71;100.00;99549.19;4990424;28;20039;-58
2022/08/20 05:43:03;;;;;;;26.65;20.55;;;;;;;17.79;100.00;98856.31;4992042;28;20064;-58
2022/08/20 05:45:28;;;;;;;100.97;90.13;;;;;;;17.90;100.00;98873.88;4990789;28;20046;-57
2022/08/20 05:47:54;;;;;;;42.47;38.03;;;;;;;18.03;100.00;98190.34;4991342;28;20488;-57
2022/08/20 05:50:19;;;;;;;26.30;22.48;;;;;;;18.12;100.00;98203.78;4989223;28;20061;-58
2022/08/20 05:52:45;;;;;;;32.95;21.73;;;;;;;18.25;100.00;98223.59;4991066;28;20429;-58
2022/08/20 05:55:15;;;;;;;23.20;20.67;;;;;;;18.37;100.00;98242.59;4990910;28;20490;-57
2022/08/20 05:57:41;;;;;;;25.70;18.50;;;;;;;18.50;100.00;98262.38;4992126;28;20033;-57
2022/08/20 06:00:10;;;;;;;21.90;17.70;;;;;;;18.56;100.00;99681.00;4990943;28;20421;-57
2022/08/20 06:05:20;;;;;;;26.80;17.85;;;;;;;18.53;100.00;106732.66;4990431;28;20048;-58
2022/08/20 06:07:45;;;;;;;23.05;16.67;;;;;;;18.28;100.00;114110.78;4991468;28;20026;-58
2022/08/20 06:10:12;;;;;;;27.67;17.27;;;;;;;18.04;100.00;119728.16;4990564;28;20034;-57
2022/08/20 06:12:37;;;;;;;25.70;16.50;;;;;;;17.94;100.00;120061.66;4991561;28;20077;-57
2022/08/20 06:15:05;;;;;;;21.58;16.77;;;;;;;17.88;100.00;118635.47;4990709;28;20038;-57
2022/08/20 06:17:32;;;;;;;21.02;16.33;;;;;;;17.93;100.00;116876.34;4991694;28;20030;-58
2022/08/20 06:20:00;;;;;;;24.35;17.63;;;;;;;17.90;100.00;115457.19;4990193;28;20096;-58
2022/08/20 06:22:25;;;;;;;26.98;15.70;;;;;;;17.90;100.00;114395.81;4991496;28;20023;-58
2022/08/20 06:24:51;;;;;;;20.45;15.98;;;;;;;17.88;100.00;114393.00;4990564;28;20046;-57
2022/08/20 06:27:17;;;;;;;20.42;15.80;;;;;;;17.85;100.00;115093.41;4991601;28;20026;-57
2022/08/20 06:29:42;;;;;;;23.75;15.23;;;;;;;17.87;100.00;116157.75;4989921;28;20509;-58
2022/08/20 06:32:07;;;;;;;28.25;17.10;;;;;;;17.85;100.00;117568.47;4992122;28;20033;-57
2022/08/20 06:34:33;;;;;;;23.02;14.88;;;;;;;17.83;100.00;117211.03;4989872;28;20034;-58
2022/08/20 06:36:58;;;;;;;31.45;17.38;;;;;;;17.83;100.00;116503.78;4991651;28;20065;-57
2022/08/20 06:39:27;;;;;;;30.95;17.92;;;;;;;17.85;100.00;115446.91;4990220;28;20456;-57
2022/08/20 06:41:54;;;;;;;20.70;15.25;;;;;;;17.87;100.00;114390.22;4991424;28;20022;-58
2022/08/20 06:44:19;;;;;;;27.27;16.13;;;;;;;17.91;100.00;113337.41;4990336;28;20401;-57
2022/08/20 06:46:45;;;;;;;21.38;18.10;;;;;;;18.00;100.00;112293.00;4991550;28;20023;-57
2022/08/20 06:49:10;;;;;;;25.55;17.23;;;;;;;18.10;100.00;110897.03;4990013;28;20387;-57
2022/08/20 06:51:36;;;;;;;18.25;16.27;;;;;;;18.15;100.00;110199.50;4991271;28;20467;-57
2022/08/20 06:54:03;;;;;;;15.80;14.18;;;;;;;18.19;100.00;110559.91;4990363;28;20025;-58
2022/08/20 06:56:29;;;;;;;30.30;17.45;;;;;;;18.20;100.00;112681.94;4991282;28;20034;-57
2022/08/20 06:58:54;;;;;;;23.05;15.30;;;;;;;18.22;100.00;114454.25;4990033;28;20077;-57
2022/08/20 07:01:20;;;;;;;28.35;15.98;;;;;;;18.24;100.00;115518.09;4991584;28;20026;-57
2022/08/20 07:03:46;;;;;;;18.35;14.43;;;;;;;18.19;100.00;117631.50;4990973;28;20094;-57
2022/08/20 07:06:12;;;;;;;23.70;17.10;;;;;;;18.10;100.00;121155.16;4989880;28;20038;-57
2022/08/20 07:08:37;;;;;;;20.70;14.73;;;;;;;18.10;100.00;125406.06;4991117;28;20067;-57
2022/08/20 07:11:03;;;;;;;19.30;14.23;;;;;;;18.17;100.00;130387.00;4989711;28;20100;-57
2022/08/20 07:13:28;;;;;;;20.20;14.77;;;;;;;18.28;100.00;133606.94;4991447;28;20085;-58
2022/08/20 07:15:54;;;;;;;25.52;16.50;;;;;;;18.38;100.00;134695.00;4990008;28;20096;-58
2022/08/20 07:18:21;;;;;;;20.25;13.27;;;;;;;18.38;100.00;140385.31;4991149;28;20493;-57
2022/08/20 07:20:46;;;;;;;18.48;13.07;;;;;;;18.52;100.00;145403.72;4992936;28;20062;-58
2022/08/20 07:23:12;;;;;;;20.58;13.57;;;;;;;18.63;100.00;147212.94;4995028;28;20045;-57
2022/08/20 07:25:40;;;;;;;25.27;12.27;;;;;;;18.70;100.00;153655.84;4993254;28;20046;-58
2022/08/20 07:28:11;;;;;;;20.42;11.68;;;;;;;18.70;100.00;164113.84;4995199;28;20628;-58
2022/08/20 07:33:20;;;;;;;15.77;10.80;;;;;;;18.99;100.00;165536.03;4994845;28;20112;-57
2022/08/20 07:35:47;;;;;;;14.32;9.98;;;;;;;19.15;100.00;165578.06;4993263;28;20464;-57
2022/08/20 07:38:23;;;;;;;16.73;11.38;;;;;;;19.21;100.00;165593.00;4995181;28;20038;-58
2022/08/20 07:40:50;;;;;;;16.38;9.73;;;;;;;19.27;100.00;165609.28;4993005;28;20069;-57
2022/08/20 07:43:16;;;;;;;15.60;11.80;;;;;;;19.28;100.00;165612.00;4994747;28;20081;-58
2022/08/20 07:45:42;;;;;;;16.80;10.35;;;;;;;19.11;100.00;165567.25;4993206;28;20334;-57
2022/08/20 07:48:10;;;;;;;14.18;9.40;;;;;;;18.98;100.00;165533.31;4994379;28;20030;-58
2022/08/20 07:50:36;;;;;;;20.20;11.73;;;;;;;18.96;100.00;165527.88;4993002;28;20045;-56
2022/08/20 07:53:01;;;;;;;15.95;9.27;;;;;;;18.82;100.00;165489.84;4994644;28;20382;-57
2022/08/20 07:55:27;;;;;;;18.17;8.68;;;;;;;18.70;100.00;165460.03;4992594;28;20041;-58
2022/08/20 07:57:52;;;;;;;13.80;8.57;;;;;;;18.62;100.00;165438.34;4994903;28;20027;-57
2022/08/20 08:00:24;;;;;;;15.75;9.98;;;;;;;18.71;100.00;165462.75;4993172;28;20093;-57
2022/08/20 08:02:50;;;;;;;15.23;9.23;;;;;;;18.75;100.00;165472.25;4993859;28;20044;-57
2022/08/20 08:05:16;;;;;;;15.55;9.73;;;;;;;18.84;100.00;165495.28;4992724;28;20046;-56
2022/08/20 08:07:42;;;;;;;17.77;10.13;;;;;;;18.92;100.00;165517.06;4994124;28;20080;-58
2022/08/20 08:10:11;;;;;;;13.85;8.27;;;;;;;19.02;100.00;165542.81;4992442;28;20050;-57
2022/08/20 08:12:42;;;;;;;13.45;10.27;;;;;;;19.14;100.00;165575.34;4994262;28;20022;-57
2022/08/20 08:15:13;;;;;;;9.20;7.93;;;;;;;19.27;100.00;165609.28;4992957;28;20100;-58
2022/08/20 08:17:39;;;;;;;21.45;8.20;;;;;;;19.42;100.00;165647.25;4993577;28;20022;-58
2022/08/20 08:20:07;;;;;;;16.42;7.90;;;;;;;19.45;100.00;165656.75;4992749;28;20042;-58
2022/08/20 08:22:33;;;;;;;11.60;6.22;;;;;;;19.27;100.00;165607.94;4993767;28;20063;-57
2022/08/20 08:25:01;;;;;;;14.57;7.28;;;;;;;19.07;100.00;165555.03;4992245;28;20066;-58
2022/08/20 08:27:31;;;;;;;11.57;6.38;;;;;;;19.18;100.00;165584.84;4993994;28;20092;-57
2022/08/20 08:29:57;;;;;;;12.93;6.20;;;;;;;19.32;100.00;165622.84;4992244;28;20046;-58
2022/08/20 08:32:23;;;;;;;19.52;8.65;;;;;;;19.52;100.00;165674.41;4993243;28;20022;-57
2022/08/20 08:34:48;;;;;;;33.95;9.52;;;;;;;19.60;100.00;165696.13;4992525;28;20100;-57
2022/08/20 08:37:14;;;;;;;16.20;9.00;;;;;;;19.99;100.00;165796.59;4993778;28;20382;-58
2022/08/20 08:39:39;;;;;;;18.40;7.13;;;;;;;20.65;100.00;165970.34;4991937;28;20185;-58
2022/08/20 08:42:21;;;;;;;29.13;13.48;;;;;;;20.94;100.00;166047.75;4993851;28;20026;-58
2022/08/20 08:44:47;;;;;;;17.48;8.18;;;;;;;20.77;100.00;166002.97;4992121;28;20581;-58
2022/08/20 08:47:36;;;;;;;21.08;8.02;;;;;;;20.74;100.00;165994.78;4993767;28;20025;-58
2022/08/20 08:50:04;;;;;;;12.88;5.05;;;;;;;21.07;100.00;166081.72;4992316;28;20403;-57
2022/08/20 08:52:33;;;;;;;21.80;9.15;;;;;;;-146.58;100.00;69501.63;4993117;28;20084;-57
2022/08/20 08:55:02;;;;;;;18.85;8.55;;;;;;;-146.58;100.00;69501.63;4991907;28;20050;-58
2022/08/20 08:57:28;;;;;;;37.65;9.63;;;;;;;-146.58;100.00;69501.63;4993495;28;20023;-57
2022/08/20 09:00:04;;;;;;;16.65;6.40;;;;;;;-146.58;100.00;69501.63;4991985;28;20407;-57
2022/08/20 09:02:32;;;;;;;13.88;7.18;;;;;;;-146.58;100.00;69501.63;4992545;28;20050;-58
2022/08/20 09:05:00;;;;;;;10.07;5.10;;;;;;;-146.58;100.00;69501.63;4992097;28;20406;-57
2022/08/20 09:07:30;;;;;;;12.77;3.97;;;;;;;-146.58;100.00;69501.63;4992927;28;20030;-58
2022/08/20 09:09:56;;;;;;;9.07;3.58;;;;;;;-146.58;100.00;69501.63;4991625;28;20606;-58
2022/08/20 09:12:24;;;;;;;14.50;5.43;;;;;;;-146.58;100.00;69501.63;4993432;28;20077;-58
2022/08/20 09:14:50;;;;;;;24.05;9.57;;;;;;;-146.58;100.00;69501.63;4991824;28;20038;-57
2022/08/20 09:17:19;;;;;;;12.25;5.38;;;;;;;-146.58;100.00;69501.63;4992662;28;20033;-58
2022/08/20 09:19:44;;;;;;;19.10;4.57;;;;;;;-146.58;100.00;69501.63;4991229;28;20038;-58
2022/08/20 09:22:13;;;;;;;23.17;4.10;;;;;;;-146.58;100.00;69501.63;4993075;28;20381;-58
2022/08/20 09:24:40;;;;;;;11.65;3.17;;;;;;;-146.58;100.00;69501.63;4990918;28;20050;-58
2022/08/20 09:27:05;;;;;;;9.88;3.13;;;;;;;-146.58;100.00;69501.63;4992968;28;20533;-58
2022/08/20 09:29:31;;;;;;;12.13;3.97;;;;;;;-146.58;100.00;69501.63;4990840;28;20043;-58
2022/08/20 09:32:13;;;;;;;7.22;3.63;;;;;;;-146.58;100.00;69501.63;4992628;28;20026;-58
2022/08/20 09:34:41;;;;;;;15.45;3.95;;;;;;;-146.58;100.00;69501.63;4991300;28;20042;-58
2022/08/20 09:37:08;;;;;;;7.95;2.92;;;;;;;-146.58;100.00;69501.63;4992780;28;20051;-58
2022/08/20 09:39:34;;;;;;;12.85;2.58;;;;;;;-146.58;100.00;69501.63;4990561;28;20037;-58
2022/08/20 09:42:08;;;;;;;10.32;4.03;;;;;;;-146.58;100.00;69501.63;4991564;28;20049;-57
2022/08/20 09:44:34;;;;;;;13.40;3.25;;;;;;;-146.58;100.00;69501.63;4990750;28;20490;-58
2022/08/20 09:46:59;;;;;;;10.35;3.13;;;;;;;-146.58;100.00;69501.63;4992169;28;20034;-58
2022/08/20 09:49:25;;;;;;;9.13;3.42;;;;;;;-146.58;100.00;69501.63;4990612;28;20065;-58
2022/08/20 09:51:50;;;;;;;7.25;3.08;;;;;;;-146.58;100.00;69501.63;4992312;28;20471;-58
2022/08/20 09:54:15;;;;;;;17.95;4.32;;;;;;;-146.58;100.00;69501.63;4990740;28;20034;-58
2022/08/20 09:56:41;;;;;;;14.45;3.15;;;;;;;-146.58;100.00;69501.63;4992024;28;20281;-58
2022/08/20 09:59:06;;;;;;;7.57;2.85;;;;;;;-146.58;100.00;69501.63;4991019;28;20040;-58
2022/08/20 10:01:32;;;;;;;12.63;3.33;;;;;;;-146.58;100.00;69501.63;4991569;28;20033;-58
2022/08/20 10:03:57;;;;;;;8.93;3.78;;;;;;;-146.58;100.00;69501.63;4990900;28;20165;-58
2022/08/20 10:06:22;;;;;;;10.30;3.78;;;;;;;-146.58;100.00;69501.63;4991950;28;20053;-58
2022/08/20 10:08:48;;;;;;;9.48;3.20;;;;;;;-146.58;100.00;69501.63;4991984;28;20037;-58
2022/08/20 10:11:14;;;;;;;11.25;3.10;;;;;;;-146.58;100.00;69501.63;4990616;28;20066;-58
2022/08/20 10:13:39;;;;;;;12.55;3.55;;;;;;;-146.58;100.00;69501.63;4991524;28;20117;-58
2022/08/20 10:16:05;;;;;;;8.35;2.92;;;;;;;-146.58;100.00;69501.63;4990269;28;20049;-58
2022/08/20 10:18:30;;;;;;;7.88;3.03;;;;;;;-146.58;100.00;69501.63;4991854;28;20058;-58
2022/08/20 10:20:56;;;;;;;9.27;2.50;;;;;;;-146.58;100.00;69501.63;4990527;28;20042;-58
2022/08/20 10:23:21;;;;;;;10.32;2.92;;;;;;;-146.58;100.00;69501.63;4991423;28;20043;-58
2022/08/20 10:25:46;;;;;;;8.35;3.03;;;;;;;-146.58;100.00;69501.63;4990334;28;20038;-58
2022/08/20 10:28:12;;;;;;;7.25;3.50;;;;;;;-146.58;100.00;69501.63;4991863;28;20072;-58
2022/08/20 10:30:37;;;;;;;11.25;2.60;;;;;;;-146.58;100.00;69501.63;4989869;28;20178;-58
2022/08/20 10:33:02;;;;;;;10.90;3.13;;;;;;;-146.58;100.00;69501.63;4992050;28;20037;-58
2022/08/20 10:35:28;;;;;;;9.02;3.17;;;;;;;-146.58;100.00;69501.63;4989993;28;20113;-59
2022/08/20 10:37:53;;;;;;;10.02;3.13;;;;;;;-146.58;100.00;69501.63;4991568;28;20030;-58
2022/08/20 10:40:19;;;;;;;13.55;3.72;;;;;;;-146.58;100.00;69501.63;4990163;28;20042;-58
2022/08/20 10:42:44;;;;;;;13.45;5.07;;;;;;;-146.58;100.00;69501.63;4990799;28;20026;-58
2022/08/20 10:45:11;;;;;;;9.25;3.65;;;;;;;-146.58;100.00;69501.63;4989697;28;20038;-58
2022/08/20 10:47:37;;;;;;;7.88;2.92;;;;;;;-146.58;100.00;69501.63;4989610;28;20027;-58
2022/08/20 10:50:06;;;;;;;9.85;3.17;;;;;;;-146.58;100.00;69501.63;4990116;28;20525;-58
2022/08/20 10:52:31;;;;;;;14.13;2.47;;;;;;;-146.58;100.00;69501.63;4990167;28;20264;-58
2022/08/20 10:54:57;;;;;;;12.07;2.95;;;;;;;-146.58;100.00;69501.63;4993308;28;20100;-58
2022/08/20 10:57:27;;;;;;;10.63;3.40;;;;;;;-146.58;100.00;69501.63;4995483;28;20022;-58
2022/08/20 10:59:55;;;;;;;14.48;3.10;;;;;;;-146.58;100.00;69501.63;4994105;28;20045;-58
2022/08/20 11:02:21;;;;;;;12.40;3.80;;;;;;;-146.58;100.00;69501.63;4995058;28;20030;-58
2022/08/20 11:04:47;;;;;;;9.55;2.72;;;;;;;-146.58;100.00;69501.63;4993980;28;20038;-58
2022/08/20 11:07:19;;;;;;;13.73;4.28;;;;;;;-146.58;100.00;69501.63;4995360;28;20029;-58
2022/08/20 11:09:47;;;;;;;13.20;2.97;;;;;;;-146.58;100.00;69501.63;4993369;28;20044;-58
2022/08/20 11:12:14;;;;;;;6.63;2.33;;;;;;;-146.58;100.00;69501.63;4995675;28;20030;-58
2022/08/20 11:14:40;;;;;;;11.48;3.08;;;;;;;-146.58;100.00;69501.63;4993802;28;20034;-58